PASV/SVW METAR and TAF weather

Enter ICAO airport designator
Station Type Date Time Source
PASV METAR 2020/07/03 12:02 UTC NOAA

PASV 031202Z AUTO 22003KT 2 1/2SM -DZ BR BKN002 12/12 A3011 RMK AO2 SLP190 $


Station Type Date Time Source
PASV Decoded METAR 2020/07/03 12:02 UTC NOAA

Sparrevohn Airways Facilities Sector, AK, United States (PASV) 61-06N 155-34W
Jul 03, 2020 - 08:02 AM EDT / 2020.07.03 1202 UTC
Wind: from the SW (220 degrees) at 3 MPH (3 KT):0
Visibility: 2 1/2 mile(s):0
Sky conditions: mostly cloudy
Weather: light drizzle; mist
Temperature: 53 F (12 C)
Dew Point: 53 F (12 C)
Relative Humidity: 100%
Pressure (altimeter): 30.11 in. Hg (1019 hPa)
ob: PASV 031202Z AUTO 22003KT 2 1/2SM -DZ BR BKN002 12/12 A3011 RMK AO2 SLP190
cycle: 12

Station Type Date Time Source
PASV TAF 2012/01/12 14:57 UTC NOAA

TAF
AMD PASV 1214/1320 33010G15KT 4800 -SN BLSN SCT003 SCT110 QNH2984INS
BECMG 1221/1222 VRB06KT 9999 NSW FEW010 SCT110 QNH3000INS LIMITED METWATCH TM25/1300Z TM37/1315Z
AMD 121453

Example: see airport list